createdAt,value
2022-07-26T00:00:13.428Z,30.15
2022-07-26T00:05:19.595Z,28.58
2022-07-26T00:07:49.125Z,24.90
2022-07-26T00:10:18.401Z,42.00
2022-07-26T00:12:47.627Z,50.05
2022-07-26T00:15:17.071Z,68.18
2022-07-26T00:17:46.328Z,63.72
2022-07-26T00:20:15.572Z,28.30
2022-07-26T00:22:46.519Z,36.17
2022-07-26T00:25:15.894Z,23.40
2022-07-26T00:27:45.179Z,20.58
2022-07-26T00:30:15.525Z,35.88
2022-07-26T00:32:44.921Z,26.15
2022-07-26T00:35:14.770Z,19.05
2022-07-26T00:37:45.722Z,23.02
2022-07-26T00:40:16.450Z,21.88
2022-07-26T00:42:46.025Z,25.17
2022-07-26T00:45:16.337Z,39.58
2022-07-26T00:47:46.885Z,25.85
2022-07-26T00:50:18.736Z,31.25
2022-07-26T00:52:51.808Z,20.90
2022-07-26T00:55:21.965Z,58.10
2022-07-26T00:57:51.815Z,24.13
2022-07-26T01:00:26.573Z,23.75
2022-07-26T01:02:56.301Z,21.50
2022-07-26T01:05:26.518Z,21.20
2022-07-26T01:07:57.681Z,32.25
2022-07-26T01:10:27.292Z,32.55
2022-07-26T01:12:56.453Z,26.33
2022-07-26T01:15:25.604Z,28.27
2022-07-26T01:17:54.882Z,28.60
2022-07-26T01:20:24.073Z,36.47
2022-07-26T01:22:54.682Z,26.95
2022-07-26T01:25:31.675Z,24.08
2022-07-26T01:28:00.942Z,24.08
2022-07-26T01:30:30.289Z,38.58
2022-07-26T01:32:59.781Z,26.08
2022-07-26T01:35:29.494Z,60.80
2022-07-26T01:38:00.037Z,22.40
2022-07-26T01:40:29.355Z,41.95
2022-07-26T01:42:58.466Z,59.53
2022-07-26T01:45:27.978Z,27.60
2022-07-26T01:47:57.516Z,24.60
2022-07-26T01:50:26.802Z,24.17
2022-07-26T01:52:56.390Z,21.98
2022-07-26T01:55:26.948Z,24.83
2022-07-26T01:57:56.446Z,30.95
2022-07-26T02:00:25.792Z,19.85
2022-07-26T02:02:55.481Z,23.13
2022-07-26T02:05:24.920Z,19.00
2022-07-26T02:07:54.124Z,34.10
2022-07-26T02:10:46.449Z,22.80
2022-07-26T02:13:16.729Z,18.00
2022-07-26T02:15:46.000Z,25.67
2022-07-26T02:18:15.372Z,22.15
2022-07-26T02:20:44.567Z,19.67
2022-07-26T02:23:14.444Z,20.58
2022-07-26T02:25:45.199Z,16.00
2022-07-26T02:28:14.411Z,16.27
2022-07-26T02:30:44.340Z,18.17
2022-07-26T02:33:28.948Z,16.48
2022-07-26T02:46:25.431Z,18.25
2022-07-26T02:48:54.815Z,17.27
2022-07-26T02:51:24.298Z,19.25
2022-07-26T02:53:54.038Z,17.95
2022-07-26T02:56:23.285Z,15.13
2022-07-26T02:58:52.668Z,17.48
2022-07-26T03:01:22.007Z,15.63
2022-07-26T03:03:52.911Z,17.17
2022-07-26T03:06:22.318Z,34.05
2022-07-26T03:08:52.034Z,19.02
2022-07-26T03:11:21.260Z,18.48
2022-07-26T03:13:50.396Z,20.83
2022-07-26T03:16:22.749Z,18.17
2022-07-26T03:18:55.609Z,21.33
2022-07-26T03:21:24.951Z,22.13
2022-07-26T03:23:54.102Z,33.40
2022-07-26T03:26:23.431Z,23.02
2022-07-26T03:28:52.983Z,20.90
2022-07-26T03:31:23.613Z,19.90
2022-07-26T03:33:55.240Z,20.73
2022-07-26T03:36:27.045Z,18.48
2022-07-26T03:38:56.556Z,30.27
2022-07-26T03:41:25.733Z,21.45
2022-07-26T03:43:55.112Z,17.77
2022-07-26T03:46:24.519Z,27.35
2022-07-26T03:48:55.169Z,20.85
2022-07-26T03:51:24.910Z,19.52
2022-07-26T03:53:54.475Z,17.52
2022-07-26T03:56:34.443Z,19.75
2022-07-26T03:59:07.267Z,24.13
2022-07-26T04:04:09.095Z,22.50
2022-07-26T04:06:38.889Z,23.53
2022-07-26T04:09:09.097Z,28.42
2022-07-26T04:11:38.538Z,29.17
2022-07-26T04:14:08.150Z,28.52
2022-07-26T04:16:42.902Z,25.77
2022-07-26T04:19:14.628Z,28.63
2022-07-26T04:21:43.821Z,27.60
2022-07-26T04:24:12.936Z,26.27
2022-07-26T04:26:42.191Z,24.48
2022-07-26T04:29:12.882Z,23.45
2022-07-26T04:31:42.086Z,28.13
2022-07-26T04:34:11.570Z,58.30
2022-07-26T04:36:42.405Z,39.63
2022-07-26T04:39:12.061Z,26.92
2022-07-26T04:41:41.213Z,44.05
2022-07-26T04:44:10.716Z,26.67
2022-07-26T04:46:40.361Z,96.97
2022-07-26T04:49:14.971Z,26.73
2022-07-26T04:51:47.023Z,27.25
2022-07-26T04:54:20.769Z,33.75
2022-07-26T04:56:50.228Z,25.45
2022-07-26T04:59:21.891Z,22.45
2022-07-26T05:01:51.493Z,29.30
2022-07-26T05:04:20.795Z,53.15
2022-07-26T05:06:51.614Z,26.83
2022-07-26T05:09:24.423Z,25.48
2022-07-26T05:14:25.292Z,27.85
2022-07-26T05:16:57.289Z,31.73
2022-07-26T05:19:26.577Z,29.35
2022-07-26T05:21:57.296Z,26.08
2022-07-26T05:24:26.767Z,24.63
2022-07-26T05:26:58.995Z,23.10
2022-07-26T05:29:31.061Z,26.55
2022-07-26T05:32:00.430Z,25.35
2022-07-26T05:34:29.802Z,24.38
2022-07-26T05:37:00.488Z,30.33
2022-07-26T05:39:29.823Z,26.67
2022-07-26T05:41:58.927Z,24.67
2022-07-26T05:44:30.906Z,26.77
2022-07-26T05:47:00.238Z,21.73
2022-07-26T05:49:40.348Z,27.15
2022-07-26T05:52:11.384Z,24.40
2022-07-26T05:54:40.959Z,30.90
2022-07-26T05:57:10.170Z,36.80
2022-07-26T05:59:39.376Z,79.57
2022-07-26T06:02:09.187Z,24.63
2022-07-26T06:04:38.476Z,34.58
2022-07-26T06:07:08.079Z,23.30
2022-07-26T06:09:38.768Z,23.20
2022-07-26T06:12:08.623Z,24.60
2022-07-26T06:14:37.940Z,41.83
2022-07-26T06:17:07.297Z,23.33
2022-07-26T06:19:36.809Z,22.27
2022-07-26T06:22:06.143Z,24.48
2022-07-26T06:24:35.410Z,26.70
2022-07-26T06:27:06.216Z,23.88
2022-07-26T06:29:35.644Z,24.00
2022-07-26T06:32:05.117Z,26.55
2022-07-26T06:34:34.500Z,25.35
2022-07-26T06:37:04.535Z,29.77
2022-07-26T06:39:33.808Z,29.02
2022-07-26T06:42:03.002Z,28.02
2022-07-26T06:44:33.630Z,29.60
2022-07-26T06:47:02.936Z,28.25
2022-07-26T06:49:32.331Z,28.63
2022-07-26T06:52:01.645Z,26.83
2022-07-26T06:54:30.834Z,29.90
2022-07-26T06:57:00.829Z,28.83
2022-07-26T06:59:30.153Z,27.02
2022-07-26T07:02:01.865Z,31.25
2022-07-26T07:04:32.394Z,29.67
2022-07-26T07:07:06.089Z,30.88
2022-07-26T07:09:36.586Z,28.00
2022-07-26T07:12:09.768Z,29.75
2022-07-26T07:14:40.500Z,29.60
2022-07-26T07:17:15.956Z,27.48
2022-07-26T07:19:47.847Z,33.20
2022-07-26T07:22:17.263Z,37.30
2022-07-26T07:24:46.700Z,30.90
2022-07-26T07:27:17.835Z,32.90
2022-07-26T07:29:47.023Z,29.38
2022-07-26T07:32:19.741Z,29.02
2022-07-26T07:34:49.901Z,30.65
2022-07-26T07:37:20.434Z,31.52
2022-07-26T07:39:50.617Z,30.38
2022-07-26T07:42:20.695Z,31.58
2022-07-26T07:44:50.313Z,29.58
2022-07-26T07:47:22.346Z,31.63
2022-07-26T07:49:51.886Z,35.30
2022-07-26T07:52:21.102Z,33.15
2022-07-26T07:54:50.636Z,57.47
2022-07-26T07:57:20.666Z,35.92
2022-07-26T07:59:53.640Z,34.78
2022-07-26T08:02:24.489Z,33.38
2022-07-26T08:04:54.347Z,32.08
2022-07-26T08:07:23.840Z,33.63
2022-07-26T08:10:03.539Z,31.02
2022-07-26T08:12:32.880Z,35.17
2022-07-26T08:15:02.537Z,34.55
2022-07-26T08:17:41.780Z,31.15
2022-07-26T08:20:15.805Z,29.38
2022-07-26T08:22:45.310Z,28.50
2022-07-26T08:25:14.623Z,31.88
2022-07-26T08:27:55.090Z,27.13
2022-07-26T08:30:32.259Z,29.90
2022-07-26T08:33:03.028Z,26.83
2022-07-26T08:35:32.345Z,27.83
2022-07-26T08:38:02.060Z,24.98
2022-07-26T08:40:31.436Z,24.98
2022-07-26T08:43:01.961Z,28.83
2022-07-26T08:45:33.119Z,32.97
2022-07-26T08:48:19.197Z,27.90
2022-07-26T08:50:49.283Z,25.73
2022-07-26T08:53:18.544Z,25.52
2022-07-26T08:56:06.413Z,29.30
2022-07-26T08:58:37.867Z,30.25
2022-07-26T09:01:09.950Z,29.90
2022-07-26T09:03:41.474Z,26.70
2022-07-26T09:06:17.475Z,34.38
2022-07-26T09:08:49.002Z,26.67
2022-07-26T09:11:30.128Z,31.55
2022-07-26T09:14:02.574Z,24.63
2022-07-26T09:16:37.251Z,25.30
2022-07-26T09:19:22.888Z,24.90
2022-07-26T09:21:53.297Z,25.83
2022-07-26T09:24:36.766Z,30.13
2022-07-26T09:27:09.424Z,30.77
2022-07-26T09:29:48.095Z,30.77
2022-07-26T09:32:19.913Z,27.65
2022-07-26T09:34:57.763Z,28.98
2022-07-26T09:37:39.060Z,24.65
2022-07-26T09:40:11.217Z,26.17
2022-07-26T09:42:54.569Z,26.35
2022-07-26T09:45:24.280Z,24.90
2022-07-26T09:47:54.127Z,27.48
2022-07-26T09:50:27.961Z,30.02
2022-07-26T09:53:10.715Z,25.52
2022-07-26T09:55:57.509Z,26.90
2022-07-26T09:58:28.425Z,27.42
2022-07-26T10:01:02.311Z,26.60
2022-07-26T10:03:32.606Z,26.17
2022-07-26T10:06:05.105Z,22.05
2022-07-26T10:11:08.408Z,23.88
2022-07-26T10:13:38.874Z,24.98
2022-07-26T10:16:28.739Z,20.48
2022-07-26T10:18:59.253Z,28.38
2022-07-26T10:21:31.872Z,23.00
2022-07-26T10:24:02.710Z,34.03
2022-07-26T10:26:45.754Z,21.63
2022-07-26T10:29:31.516Z,22.33
2022-07-26T10:32:21.458Z,22.95
2022-07-26T10:34:50.921Z,29.42
2022-07-26T10:37:30.627Z,27.92
2022-07-26T10:40:22.774Z,27.35
2022-07-26T10:42:52.494Z,29.77
2022-07-26T10:45:24.437Z,20.10
2022-07-26T10:48:16.676Z,28.88
2022-07-26T10:50:48.533Z,23.45
2022-07-26T10:53:24.558Z,23.02
2022-07-26T10:55:55.822Z,24.30
2022-07-26T10:58:28.944Z,20.60
2022-07-26T11:01:01.481Z,32.38
2022-07-26T11:03:42.266Z,22.67
2022-07-26T11:06:14.227Z,19.65
2022-07-26T11:08:48.702Z,18.98
2022-07-26T11:11:31.044Z,20.60
2022-07-26T11:14:09.109Z,21.35
2022-07-26T11:16:41.208Z,22.67
2022-07-26T11:19:19.029Z,28.05
2022-07-26T11:21:56.245Z,28.13
2022-07-26T11:24:27.492Z,29.90
2022-07-26T11:26:56.833Z,26.33
2022-07-26T11:29:38.463Z,26.67
2022-07-26T11:32:19.218Z,21.77
2022-07-26T11:34:58.542Z,20.52
2022-07-26T11:37:28.210Z,27.58
2022-07-26T11:39:58.912Z,33.65
2022-07-26T11:42:28.351Z,38.17
2022-07-26T11:44:57.547Z,52.00
2022-07-26T11:47:26.984Z,63.88
2022-07-26T11:52:46.000Z,60.13
2022-07-26T11:55:16.757Z,68.15
2022-07-26T11:57:46.113Z,62.85
2022-07-26T12:00:18.328Z,73.88
2022-07-26T12:02:50.345Z,69.72
2022-07-26T12:05:25.716Z,53.50
2022-07-26T12:07:58.084Z,44.33
2022-07-26T12:10:29.600Z,40.88
2022-07-26T12:13:10.093Z,46.88
2022-07-26T12:15:47.767Z,34.05
2022-07-26T12:18:25.725Z,38.75
2022-07-26T12:21:06.715Z,26.45
2022-07-26T12:23:45.252Z,29.87
2022-07-26T12:26:27.906Z,32.00
2022-07-26T12:28:58.381Z,31.55
2022-07-26T12:31:30.178Z,24.27
2022-07-26T12:34:00.318Z,46.05
2022-07-26T12:36:30.484Z,32.92
2022-07-26T12:39:01.332Z,28.27
2022-07-26T12:41:41.042Z,50.22
2022-07-26T12:44:12.617Z,33.17
2022-07-26T12:46:44.992Z,46.38
2022-07-26T12:49:14.805Z,61.40
2022-07-26T12:51:44.924Z,51.17
2022-07-26T12:54:14.751Z,47.28
2022-07-26T12:56:46.367Z,43.17
2022-07-26T12:59:18.124Z,42.17
2022-07-26T13:01:47.540Z,39.38
2022-07-26T13:04:17.398Z,43.67
2022-07-26T13:06:46.837Z,42.65
2022-07-26T13:09:17.186Z,33.63
2022-07-26T13:11:48.269Z,29.50
2022-07-26T13:14:17.594Z,27.90
2022-07-26T13:16:46.904Z,33.33
2022-07-26T13:19:16.696Z,35.42
2022-07-26T13:21:52.294Z,51.13
2022-07-26T13:24:22.504Z,49.63
2022-07-26T13:26:53.743Z,52.03
2022-07-26T13:29:23.539Z,42.00
2022-07-26T13:31:53.921Z,53.60
2022-07-26T13:34:24.255Z,49.33
2022-07-26T13:36:53.853Z,76.00
2022-07-26T13:39:23.120Z,55.88
2022-07-26T13:41:54.433Z,66.78
2022-07-26T13:44:24.289Z,63.88
2022-07-26T13:46:53.745Z,57.78
2022-07-26T13:49:23.119Z,57.05
2022-07-26T13:51:58.610Z,65.95
2022-07-26T13:54:31.349Z,67.47
2022-07-26T13:57:05.355Z,64.60
2022-07-26T13:59:35.081Z,77.55
2022-07-26T14:02:05.754Z,55.40
2022-07-26T14:04:36.147Z,53.38
2022-07-26T14:07:05.397Z,69.15
2022-07-26T14:09:34.847Z,77.15
2022-07-26T14:12:06.440Z,71.60
2022-07-26T14:14:37.938Z,65.80
2022-07-26T14:17:07.289Z,66.10
2022-07-26T14:19:37.081Z,78.05
2022-07-26T14:22:06.421Z,64.25
2022-07-26T14:24:35.818Z,82.72
2022-07-26T14:27:06.623Z,72.63
2022-07-26T14:29:35.895Z,94.63
2022-07-26T14:32:05.668Z,67.60
2022-07-26T14:34:34.933Z,71.60
2022-07-26T14:37:09.923Z,73.05
2022-07-26T14:39:53.502Z,55.75
2022-07-26T14:42:25.265Z,72.20
2022-07-26T14:44:54.617Z,62.88
2022-07-26T14:47:23.898Z,65.30
2022-07-26T14:49:53.270Z,78.47
2022-07-26T14:52:22.687Z,71.32
2022-07-26T14:54:51.971Z,73.05
2022-07-26T14:57:21.290Z,56.75
2022-07-26T14:59:52.017Z,72.40
2022-07-26T15:02:21.659Z,68.07
2022-07-26T15:04:51.279Z,60.67
2022-07-26T15:07:20.611Z,69.97
2022-07-26T15:09:49.918Z,75.80
2022-07-26T15:12:19.324Z,67.20
2022-07-26T15:14:48.563Z,75.90
2022-07-26T15:17:19.665Z,86.25
2022-07-26T15:19:49.390Z,72.43
2022-07-26T15:22:18.891Z,69.85
2022-07-26T15:24:48.139Z,72.85
2022-07-26T15:27:17.479Z,78.90
2022-07-26T15:29:48.670Z,76.70
2022-07-26T15:32:20.995Z,97.30
2022-07-26T15:37:19.941Z,64.15
2022-07-26T15:39:49.255Z,68.20
2022-07-26T15:42:22.057Z,99.15
2022-07-26T15:44:52.785Z,104.03
2022-07-26T15:47:52.495Z,57.15
2022-07-26T15:50:15.937Z,43.05
2022-07-26T15:52:48.580Z,36.63
2022-07-26T15:55:19.585Z,57.90
2022-07-26T15:57:48.816Z,46.50
2022-07-26T16:00:19.112Z,62.33
2022-07-26T16:02:50.334Z,66.20
2022-07-26T16:05:20.103Z,79.63
2022-07-26T16:07:49.500Z,58.20
2022-07-26T16:10:19.688Z,67.50
2022-07-26T16:12:48.909Z,73.65
2022-07-26T16:15:18.113Z,73.28
2022-07-26T16:17:48.780Z,65.68
2022-07-26T16:20:19.596Z,75.15
2022-07-26T16:22:49.156Z,75.82
2022-07-26T16:25:18.628Z,57.70
2022-07-26T16:27:47.896Z,67.75
2022-07-26T16:30:17.886Z,70.90
2022-07-26T16:32:48.791Z,71.78
2022-07-26T16:35:18.574Z,59.05
2022-07-26T16:37:49.587Z,60.00
2022-07-26T16:40:19.084Z,53.50
2022-07-26T16:42:48.398Z,49.63
2022-07-26T16:45:17.736Z,44.38
2022-07-26T16:47:48.439Z,59.97
2022-07-26T16:50:27.397Z,42.05
2022-07-26T16:52:57.460Z,42.05
2022-07-26T16:55:26.977Z,43.10
2022-07-26T16:57:56.348Z,45.03
2022-07-26T17:00:25.716Z,43.10
2022-07-26T17:02:56.753Z,49.45
2022-07-26T17:05:26.400Z,46.58
2022-07-26T17:07:55.760Z,38.53
2022-07-26T17:10:28.164Z,44.90
2022-07-26T17:12:57.505Z,37.92
2022-07-26T17:15:26.964Z,40.33
2022-07-26T17:17:57.621Z,51.60
2022-07-26T17:20:27.458Z,33.95
2022-07-26T17:22:57.154Z,33.15
2022-07-26T17:25:26.633Z,36.30
2022-07-26T17:27:55.843Z,42.88
2022-07-26T17:30:25.552Z,55.10
2022-07-26T17:32:56.264Z,45.53
2022-07-26T17:35:25.779Z,30.60
2022-07-26T17:37:56.516Z,34.67
2022-07-26T17:40:26.057Z,31.52
2022-07-26T17:42:56.487Z,30.73
2022-07-26T17:45:25.647Z,33.88
2022-07-26T17:47:56.568Z,35.40
2022-07-26T17:50:36.431Z,41.45
2022-07-26T17:53:07.287Z,34.10
2022-07-26T17:55:36.598Z,35.95
2022-07-26T17:58:05.747Z,32.95
2022-07-26T18:00:35.087Z,45.50
2022-07-26T18:03:06.050Z,33.22
2022-07-26T18:05:39.605Z,36.33
2022-07-26T18:08:10.649Z,38.85
2022-07-26T18:10:40.295Z,28.05
2022-07-26T18:13:10.271Z,41.85
2022-07-26T18:15:39.787Z,41.13
2022-07-26T18:18:11.345Z,30.70
2022-07-26T18:20:40.764Z,45.33
2022-07-26T18:23:10.016Z,38.28
2022-07-26T18:25:39.517Z,31.55
2022-07-26T18:28:09.697Z,34.33
2022-07-26T18:30:39.276Z,39.10
2022-07-26T18:33:12.033Z,28.48
2022-07-26T18:35:41.492Z,27.50
2022-07-26T18:38:12.092Z,21.10
2022-07-26T18:40:41.459Z,34.40
2022-07-26T18:43:11.042Z,36.45
2022-07-26T18:45:40.524Z,29.00
2022-07-26T18:48:11.486Z,24.27
2022-07-26T18:50:41.155Z,21.77
2022-07-26T18:53:12.762Z,22.37
2022-07-26T18:55:42.018Z,24.10
2022-07-26T18:58:11.593Z,27.00
2022-07-26T19:00:41.159Z,26.75
2022-07-26T19:03:11.822Z,23.50
2022-07-26T19:05:41.528Z,29.00
2022-07-26T19:08:10.906Z,26.70
2022-07-26T19:10:40.104Z,26.05
2022-07-26T19:13:09.483Z,25.42
2022-07-26T19:15:38.774Z,32.65
2022-07-26T19:18:16.210Z,34.25
2022-07-26T19:20:45.895Z,27.42
2022-07-26T19:23:15.326Z,35.72
2022-07-26T19:25:44.697Z,28.85
2022-07-26T19:28:16.424Z,27.10
2022-07-26T19:30:46.264Z,25.92
2022-07-26T19:33:17.041Z,30.85
2022-07-26T19:35:46.414Z,27.20
2022-07-26T19:38:15.578Z,28.45
2022-07-26T19:40:45.601Z,31.23
2022-07-26T19:43:15.000Z,28.55
2022-07-26T19:45:44.609Z,28.13
2022-07-26T19:48:14.658Z,28.58
2022-07-26T19:50:45.542Z,30.52
2022-07-26T19:53:15.311Z,27.77
2022-07-26T19:55:44.861Z,27.30
2022-07-26T19:58:14.356Z,28.50
2022-07-26T20:00:44.067Z,29.63
2022-07-26T20:03:13.988Z,31.63
2022-07-26T20:05:45.404Z,29.48
2022-07-26T20:08:15.149Z,30.33
2022-07-26T20:10:44.700Z,30.73
2022-07-26T20:13:13.937Z,30.60
2022-07-26T20:15:43.622Z,31.35
2022-07-26T20:18:12.820Z,31.30
2022-07-26T20:20:44.487Z,32.47
2022-07-26T20:23:13.808Z,32.00
2022-07-26T20:25:42.989Z,32.80
2022-07-26T20:28:12.326Z,32.50
2022-07-26T20:30:41.636Z,33.08
2022-07-26T20:33:11.302Z,35.00
2022-07-26T20:35:40.788Z,34.00
2022-07-26T20:38:11.603Z,37.00
2022-07-26T20:40:41.563Z,35.08
2022-07-26T20:43:11.942Z,37.78
2022-07-26T20:45:43.630Z,35.37
2022-07-26T20:48:13.027Z,35.67
2022-07-26T20:50:42.436Z,41.05
2022-07-26T20:53:13.139Z,39.53
2022-07-26T20:55:42.641Z,41.60
2022-07-26T20:58:12.165Z,44.80
2022-07-26T21:00:43.580Z,39.38
2022-07-26T21:03:13.912Z,41.83
2022-07-26T21:05:43.783Z,41.97
2022-07-26T21:08:16.983Z,44.45
2022-07-26T21:10:47.643Z,43.03
2022-07-26T21:13:16.914Z,40.65
2022-07-26T21:15:46.155Z,36.67
2022-07-26T21:18:15.600Z,37.10
2022-07-26T21:20:46.435Z,34.20
2022-07-26T21:23:18.377Z,40.13
2022-07-26T21:25:48.050Z,36.80
2022-07-26T21:28:18.040Z,38.45
2022-07-26T21:30:47.699Z,38.88
2022-07-26T21:33:17.162Z,39.75
2022-07-26T21:35:46.770Z,39.42
2022-07-26T21:38:17.520Z,41.67
2022-07-26T21:40:47.706Z,42.47
2022-07-26T21:43:19.699Z,42.35
2022-07-26T21:45:49.124Z,43.78
2022-07-26T21:48:18.439Z,45.08
2022-07-26T21:50:47.750Z,41.85
2022-07-26T21:53:18.609Z,42.25
2022-07-26T21:55:47.924Z,42.88
2022-07-26T21:58:17.318Z,42.58
2022-07-26T22:00:46.647Z,45.15
2022-07-26T22:03:15.949Z,43.15
2022-07-26T22:05:46.946Z,43.28
2022-07-26T22:10:49.653Z,40.90
2022-07-26T22:13:19.223Z,44.67
2022-07-26T22:15:49.033Z,46.08
2022-07-26T22:18:20.324Z,45.50
2022-07-26T22:20:50.420Z,44.67
2022-07-26T22:23:23.067Z,45.00
2022-07-26T22:28:21.301Z,41.88
2022-07-26T22:30:50.628Z,42.20
2022-07-26T22:33:19.858Z,44.22
2022-07-26T22:35:50.079Z,42.15
2022-07-26T22:38:20.891Z,45.42
2022-07-26T22:40:50.370Z,45.58
2022-07-26T22:43:19.644Z,44.63
2022-07-26T22:45:49.076Z,45.58
2022-07-26T22:48:18.453Z,44.95
2022-07-26T22:50:47.601Z,42.90
2022-07-26T22:53:16.891Z,47.17
2022-07-26T22:55:47.453Z,51.15
2022-07-26T22:58:16.657Z,46.63
2022-07-26T23:00:45.996Z,44.97
2022-07-26T23:03:19.531Z,46.13
2022-07-26T23:05:52.277Z,44.22
2022-07-26T23:08:47.086Z,46.53
2022-07-26T23:11:12.522Z,45.83
2022-07-26T23:13:41.893Z,46.17
2022-07-26T23:16:11.129Z,46.35
2022-07-26T23:18:40.376Z,46.85
2022-07-26T23:21:09.582Z,49.88
2022-07-26T23:23:39.000Z,48.90
2022-07-26T23:26:08.339Z,53.40
2022-07-26T23:28:38.941Z,52.03
2022-07-26T23:31:10.930Z,54.80
2022-07-26T23:33:51.358Z,50.50
2022-07-26T23:36:28.437Z,55.08
2022-07-26T23:38:59.912Z,53.33
2022-07-26T23:41:30.033Z,55.55
2022-07-26T23:44:00.668Z,59.50
2022-07-26T23:46:30.164Z,52.95
2022-07-26T23:49:00.243Z,55.25
2022-07-26T23:51:29.523Z,58.33
2022-07-26T23:53:59.179Z,56.55
2022-07-26T23:56:28.496Z,56.50
2022-07-26T23:58:59.184Z,57.90
